createdAt,value
2024-02-02T00:01:41.388Z,103113.54
2024-02-02T00:04:11.219Z,103109.30
2024-02-02T00:06:41.416Z,103105.59
2024-02-02T00:09:11.453Z,103102.06
2024-02-02T00:11:49.393Z,103100.66
2024-02-02T00:14:21.454Z,103100.49
2024-02-02T00:16:51.684Z,103098.05
2024-02-02T00:19:21.596Z,103097.36
2024-02-02T00:21:54.326Z,103094.38
2024-02-02T00:24:26.445Z,103094.20
2024-02-02T00:26:56.463Z,103091.39
2024-02-02T00:29:26.258Z,103085.23
2024-02-02T00:31:56.086Z,103080.63
2024-02-02T00:34:30.430Z,103074.64
2024-02-02T00:37:00.345Z,103078.86
2024-02-02T00:39:30.260Z,103081.36
2024-02-02T00:42:00.362Z,103080.30
2024-02-02T00:44:32.592Z,103076.62
2024-02-02T00:47:02.438Z,103071.70
2024-02-02T00:49:32.381Z,103065.88
2024-02-02T00:52:05.025Z,103058.48
2024-02-02T00:54:35.781Z,103047.38
2024-02-02T00:57:08.469Z,103055.65
2024-02-02T00:59:38.309Z,103052.30
2024-02-02T01:02:08.088Z,103046.49
2024-02-02T01:04:39.488Z,103047.90
2024-02-02T01:07:10.220Z,103052.48
2024-02-02T01:09:42.669Z,103056.55
2024-02-02T01:12:13.096Z,103060.79
2024-02-02T01:14:43.987Z,103058.67
2024-02-02T01:17:14.403Z,103051.45
2024-02-02T01:19:44.335Z,103043.87
2024-02-02T01:22:14.457Z,103036.80
2024-02-02T01:24:44.307Z,103038.56
2024-02-02T01:27:14.982Z,103027.46
2024-02-02T01:29:44.912Z,103024.29
2024-02-02T01:32:14.737Z,103035.75
2024-02-02T01:34:44.892Z,103033.80
2024-02-02T01:37:17.337Z,103026.94
2024-02-02T01:39:47.298Z,103028.70
2024-02-02T01:42:17.279Z,103027.64
2024-02-02T01:44:47.119Z,103033.10
2024-02-02T01:47:19.616Z,103022.89
2024-02-02T01:49:49.929Z,103025.54
2024-02-02T01:52:20.123Z,103026.95
2024-02-02T01:54:50.158Z,103022.20
2024-02-02T01:57:20.755Z,103017.45
2024-02-02T01:59:51.201Z,103012.68
2024-02-02T02:02:21.293Z,103010.74
2024-02-02T02:04:51.127Z,103011.27
2024-02-02T02:07:21.077Z,103010.38
2024-02-02T02:09:50.883Z,103014.09
2024-02-02T02:12:20.793Z,103019.02
2024-02-02T02:14:50.914Z,103019.55
2024-02-02T02:17:20.823Z,103017.08
2024-02-02T02:19:50.955Z,103016.02
2024-02-02T02:22:20.906Z,103013.39
2024-02-02T02:24:50.722Z,103009.34
2024-02-02T02:27:23.167Z,103007.22
2024-02-02T02:29:55.470Z,103003.17
2024-02-02T02:32:25.686Z,103003.86
2024-02-02T02:34:55.755Z,102993.46
2024-02-02T02:37:25.561Z,102989.94
2024-02-02T02:39:55.568Z,102987.31
2024-02-02T02:42:25.516Z,102976.91
2024-02-02T02:44:55.761Z,102980.25
2024-02-02T02:47:25.752Z,102978.85
2024-02-02T02:49:58.009Z,102971.45
2024-02-02T02:52:28.026Z,102970.39
2024-02-02T02:55:00.501Z,102964.23
2024-02-02T02:57:30.563Z,102965.45
2024-02-02T03:00:00.704Z,102965.09
2024-02-02T03:02:33.097Z,102972.33
2024-02-02T03:05:03.007Z,102966.33
2024-02-02T03:07:32.859Z,102963.34
2024-02-02T03:10:04.477Z,102964.74
2024-02-02T03:12:34.265Z,102955.23
2024-02-02T03:15:04.624Z,102955.40
2024-02-02T03:17:34.606Z,102952.57
2024-02-02T03:20:08.448Z,102955.74
2024-02-02T03:22:38.557Z,102952.05
2024-02-02T03:25:09.657Z,102951.34
2024-02-02T03:27:39.416Z,102953.46
2024-02-02T03:30:11.205Z,102950.98
2024-02-02T03:32:42.757Z,102953.82
2024-02-02T03:35:13.011Z,102939.18
2024-02-02T03:37:42.802Z,102924.02
2024-02-02T03:40:14.818Z,102926.67
2024-02-02T03:42:45.075Z,102928.96
2024-02-02T03:45:15.977Z,102928.79
2024-02-02T03:47:45.800Z,102929.67
2024-02-02T03:50:16.101Z,102930.20
2024-02-02T03:52:48.995Z,102926.32
2024-02-02T03:55:19.096Z,102923.66
2024-02-02T03:57:53.553Z,102923.31
2024-02-02T04:00:23.488Z,102925.62
2024-02-02T04:02:54.648Z,102929.66
2024-02-02T04:05:24.858Z,102929.30
2024-02-02T04:07:54.862Z,102919.98
2024-02-02T04:10:26.893Z,102909.40
2024-02-02T04:12:59.003Z,102901.46
2024-02-02T04:15:30.781Z,102907.64
2024-02-02T04:18:03.758Z,102913.45
2024-02-02T04:20:33.787Z,102915.73
2024-02-02T04:23:03.874Z,102915.73
2024-02-02T04:25:33.983Z,102915.39
2024-02-02T04:28:05.378Z,102904.82
2024-02-02T04:30:36.875Z,102896.52
2024-02-02T04:33:07.762Z,102897.05
2024-02-02T04:35:40.691Z,102894.94
2024-02-02T04:38:10.500Z,102891.23
2024-02-02T04:40:40.306Z,102893.54
2024-02-02T04:43:13.139Z,102894.94
2024-02-02T04:45:43.304Z,102895.30
2024-02-02T04:48:13.495Z,102892.98
2024-02-02T04:50:43.430Z,102888.60
2024-02-02T04:53:14.415Z,102888.41
2024-02-02T04:55:44.372Z,102887.70
2024-02-02T04:58:14.277Z,102892.11
2024-02-02T05:00:46.440Z,102892.81
2024-02-02T05:03:16.195Z,102888.95
2024-02-02T05:05:46.140Z,102886.29
2024-02-02T05:08:17.044Z,102881.17
2024-02-02T05:10:46.918Z,102877.83
2024-02-02T05:13:16.775Z,102877.64
2024-02-02T05:15:47.229Z,102875.71
2024-02-02T05:18:17.345Z,102875.88
2024-02-02T05:20:50.557Z,102875.35
2024-02-02T05:23:20.773Z,102877.27
2024-02-02T05:25:53.038Z,102874.98
2024-02-02T05:28:22.983Z,102876.55
2024-02-02T05:30:53.080Z,102870.91
2024-02-02T05:33:23.152Z,102865.11
2024-02-02T05:35:53.392Z,102876.37
2024-02-02T05:38:25.412Z,102873.73
2024-02-02T05:40:55.284Z,102870.23
2024-02-02T05:43:25.187Z,102864.40
2024-02-02T05:45:55.141Z,102868.08
2024-02-02T05:48:25.151Z,102868.26
2024-02-02T05:50:57.920Z,102867.02
2024-02-02T05:53:30.171Z,102865.60
2024-02-02T05:56:00.127Z,102863.13
2024-02-02T05:58:30.004Z,102862.06
2024-02-02T06:01:02.345Z,102855.37
2024-02-02T06:03:34.582Z,102854.66
2024-02-02T06:06:04.823Z,102844.45
2024-02-02T06:08:35.029Z,102842.52
2024-02-02T06:11:08.422Z,102846.39
2024-02-02T06:13:38.244Z,102854.83
2024-02-02T06:16:11.631Z,102855.00
2024-02-02T06:18:41.605Z,102858.34
2024-02-02T06:21:11.515Z,102866.27
2024-02-02T06:23:41.337Z,102872.60
2024-02-02T06:26:11.193Z,102866.27
2024-02-02T06:28:43.177Z,102862.23
2024-02-02T06:31:15.068Z,102854.13
2024-02-02T06:33:45.116Z,102853.25
2024-02-02T06:36:17.450Z,102857.99
2024-02-02T06:38:47.344Z,102855.53
2024-02-02T06:41:17.249Z,102850.77
2024-02-02T06:43:47.698Z,102848.48
2024-02-02T06:46:17.864Z,102848.83
2024-02-02T06:48:49.020Z,102848.99
2024-02-02T06:51:21.435Z,102845.13
2024-02-02T06:53:52.630Z,102841.61
2024-02-02T06:56:40.134Z,102844.79
2024-02-02T06:59:10.463Z,102843.02
2024-02-02T07:01:40.738Z,102843.73
2024-02-02T07:04:17.600Z,102844.79
2024-02-02T07:06:50.727Z,102847.25
2024-02-02T07:09:30.739Z,102850.95
2024-02-02T07:12:05.063Z,102849.35
2024-02-02T07:14:48.722Z,102845.14
2024-02-02T07:17:27.732Z,102852.71
2024-02-02T07:19:58.605Z,102846.91
2024-02-02T07:22:44.954Z,102847.98
2024-02-02T07:25:18.708Z,102853.79
2024-02-02T07:27:58.034Z,102851.16
2024-02-02T07:30:57.668Z,102852.58
2024-02-02T07:33:33.520Z,102863.83
2024-02-02T07:36:05.137Z,102874.02
2024-02-02T07:38:50.724Z,102877.90
2024-02-02T07:41:25.807Z,102881.78
2024-02-02T07:43:57.376Z,102881.79
2024-02-02T07:46:27.326Z,102883.39
2024-02-02T07:49:01.825Z,102883.91
2024-02-02T07:51:31.756Z,102887.98
2024-02-02T07:54:01.687Z,102884.81
2024-02-02T07:56:31.636Z,102882.52
2024-02-02T07:59:04.015Z,102882.18
2024-02-02T08:01:36.952Z,102880.77
2024-02-02T08:04:07.293Z,102882.35
2024-02-02T08:06:37.389Z,102880.59
2024-02-02T08:09:10.553Z,102878.12
2024-02-02T08:11:42.924Z,102877.77
2024-02-02T08:14:12.829Z,102879.36
2024-02-02T08:16:42.768Z,102875.49
2024-02-02T08:19:12.592Z,102871.27
2024-02-02T08:21:42.526Z,102865.46
2024-02-02T08:24:12.373Z,102868.11
2024-02-02T08:26:42.269Z,102866.88
2024-02-02T08:29:14.350Z,102867.05
2024-02-02T08:31:47.198Z,102867.42
2024-02-02T08:34:17.531Z,102869.90
2024-02-02T08:36:49.886Z,102875.35
2024-02-02T08:39:20.020Z,102874.13
2024-02-02T08:41:50.001Z,102873.08
2024-02-02T08:44:24.287Z,102869.54
2024-02-02T08:46:57.031Z,102872.38
2024-02-02T08:49:47.483Z,102869.39
2024-02-02T08:52:28.281Z,102867.27
2024-02-02T08:54:58.685Z,102872.38
2024-02-02T08:57:37.656Z,102871.49
2024-02-02T09:00:37.115Z,102859.50
2024-02-02T09:03:23.957Z,102859.14
2024-02-02T09:05:58.618Z,102857.55
2024-02-02T09:08:35.343Z,102854.92
2024-02-02T09:11:27.933Z,102854.93
2024-02-02T09:14:08.930Z,102848.75
2024-02-02T09:16:44.416Z,102851.91
2024-02-02T09:19:29.269Z,102859.85
2024-02-02T09:22:00.918Z,102849.61
2024-02-02T09:24:42.449Z,102854.17
2024-02-02T09:27:19.688Z,102861.73
2024-02-02T09:29:52.141Z,102867.56
2024-02-02T09:32:22.418Z,102877.10
2024-02-02T09:34:52.864Z,102882.56
2024-02-02T09:37:26.666Z,102881.15
2024-02-02T09:40:00.160Z,102883.42
2024-02-02T09:43:02.871Z,102879.35
2024-02-02T09:45:47.579Z,102879.86
2024-02-02T09:48:30.701Z,102880.04
2024-02-02T09:51:11.094Z,102881.79
2024-02-02T09:54:06.104Z,102880.03
2024-02-02T09:56:48.727Z,102883.05
2024-02-02T09:59:26.885Z,102881.09
2024-02-02T10:02:12.859Z,102878.60
2024-02-02T10:04:58.427Z,102875.58
2024-02-02T10:07:40.110Z,102881.58
2024-02-02T10:10:34.038Z,102889.16
2024-02-02T10:13:14.736Z,102890.21
2024-02-02T10:16:06.305Z,102878.73
2024-02-02T10:19:00.731Z,102877.30
2024-02-02T10:21:49.288Z,102874.45
2024-02-02T10:24:41.070Z,102870.38
2024-02-02T10:27:33.546Z,102870.52
2024-02-02T10:30:13.153Z,102866.99
2024-02-02T10:33:10.225Z,102862.23
2024-02-02T10:35:50.871Z,102856.04
2024-02-02T10:38:35.193Z,102862.02
2024-02-02T10:41:16.925Z,102856.66
2024-02-02T10:43:58.646Z,102855.77
2024-02-02T10:46:39.288Z,102853.96
2024-02-02T10:49:29.972Z,102863.67
2024-02-02T10:52:16.701Z,102863.48
2024-02-02T10:55:03.380Z,102861.52
2024-02-02T10:57:38.125Z,102861.83
2024-02-02T11:00:16.890Z,102858.08
2024-02-02T11:03:09.102Z,102869.70
2024-02-02T11:05:49.252Z,102871.06
2024-02-02T11:08:22.605Z,102869.79
2024-02-02T11:10:58.148Z,102866.41
2024-02-02T11:13:43.096Z,102856.84
2024-02-02T11:16:38.755Z,102858.24
2024-02-02T11:19:23.146Z,102854.66
2024-02-02T11:22:08.931Z,102847.38
2024-02-02T11:24:54.343Z,102839.58
2024-02-02T11:27:34.427Z,102836.73
2024-02-02T11:30:07.582Z,102828.76
2024-02-02T11:32:58.637Z,102827.66
2024-02-02T11:35:38.313Z,102828.33
2024-02-02T11:38:17.435Z,102827.23
2024-02-02T11:40:48.601Z,102824.17
2024-02-02T11:43:21.769Z,102815.30
2024-02-02T11:45:53.623Z,102799.85
2024-02-02T11:48:33.072Z,102794.34
2024-02-02T11:51:10.266Z,102799.98
2024-02-02T11:53:46.354Z,102792.52
2024-02-02T11:56:22.499Z,102794.09
2024-02-02T11:59:05.559Z,102796.87
2024-02-02T12:01:52.301Z,102788.69
2024-02-02T12:04:37.573Z,102785.12
2024-02-02T12:07:20.026Z,102784.21
2024-02-02T12:09:55.222Z,102780.66
2024-02-02T12:12:41.723Z,102772.65
2024-02-02T12:15:12.432Z,102761.98
2024-02-02T12:17:42.943Z,102758.73
2024-02-02T12:20:18.742Z,102760.98
2024-02-02T12:22:49.485Z,102761.35
2024-02-02T12:25:20.437Z,102770.34
2024-02-02T12:27:50.558Z,102775.80
2024-02-02T12:30:20.702Z,102767.23
2024-02-02T12:32:58.639Z,102769.66
2024-02-02T12:35:31.300Z,102761.29
2024-02-02T12:38:01.762Z,102763.38
2024-02-02T12:40:32.221Z,102761.37
2024-02-02T12:43:03.844Z,102754.95
2024-02-02T12:45:34.993Z,102745.20
2024-02-02T12:48:07.030Z,102746.74
2024-02-02T12:50:37.623Z,102751.10
2024-02-02T12:53:07.629Z,102746.05
2024-02-02T12:55:37.541Z,102744.04
2024-02-02T12:58:10.988Z,102736.88
2024-02-02T13:00:41.945Z,102741.26
2024-02-02T13:03:14.604Z,102739.65
2024-02-02T13:05:46.101Z,102737.96
2024-02-02T13:08:26.660Z,102747.83
2024-02-02T13:11:00.536Z,102744.53
2024-02-02T13:13:30.519Z,102743.40
2024-02-02T13:16:00.534Z,102738.27
2024-02-02T13:18:37.645Z,102736.18
2024-02-02T13:21:23.420Z,102737.11
2024-02-02T13:23:58.025Z,102737.67
2024-02-02T13:26:37.756Z,102734.78
2024-02-02T13:29:08.825Z,102736.00
2024-02-02T13:31:42.099Z,102725.05
2024-02-02T13:34:16.145Z,102735.13
2024-02-02T13:36:50.891Z,102731.39
2024-02-02T13:39:24.556Z,102729.59
2024-02-02T13:41:55.153Z,102722.81
2024-02-02T13:44:26.808Z,102716.25
2024-02-02T13:46:58.626Z,102710.04
2024-02-02T13:49:34.210Z,102703.84
2024-02-02T13:52:07.653Z,102704.85
2024-02-02T13:54:41.312Z,102706.09
2024-02-02T13:57:15.960Z,102701.34
2024-02-02T13:59:46.754Z,102704.74
2024-02-02T14:02:16.563Z,102708.30
2024-02-02T14:04:48.954Z,102697.80
2024-02-02T14:07:21.771Z,102691.75
2024-02-02T14:10:00.594Z,102684.24
2024-02-02T14:12:36.589Z,102676.91
2024-02-02T14:15:11.121Z,102670.71
2024-02-02T14:17:43.675Z,102676.78
2024-02-02T14:20:17.585Z,102676.78
2024-02-02T14:22:47.427Z,102673.57
2024-02-02T14:25:30.793Z,102679.59
2024-02-02T14:28:00.681Z,102668.45
2024-02-02T14:30:33.638Z,102663.88
2024-02-02T14:33:17.308Z,102661.99
2024-02-02T14:35:54.624Z,102659.71
2024-02-02T14:38:24.563Z,102659.90
2024-02-02T14:41:04.912Z,102655.84
2024-02-02T14:43:35.940Z,102653.77
2024-02-02T14:46:08.691Z,102654.27
2024-02-02T14:48:41.198Z,102656.80
2024-02-02T14:51:13.596Z,102653.27
2024-02-02T14:53:43.616Z,102652.45
2024-02-02T14:56:13.909Z,102648.23
2024-02-02T14:58:44.259Z,102654.80
2024-02-02T15:01:17.034Z,102658.65
2024-02-02T15:03:46.918Z,102662.36
2024-02-02T15:06:17.433Z,102658.98
2024-02-02T15:08:47.796Z,102657.75
2024-02-02T15:11:17.750Z,102665.21
2024-02-02T15:13:50.936Z,102662.98
2024-02-02T15:16:20.956Z,102663.52
2024-02-02T15:18:53.400Z,102663.35
2024-02-02T15:21:23.429Z,102662.98
2024-02-02T15:23:53.489Z,102654.30
2024-02-02T15:26:23.477Z,102647.57
2024-02-02T15:28:53.367Z,102644.40
2024-02-02T15:31:23.882Z,102631.49
2024-02-02T15:33:58.263Z,102644.23
2024-02-02T15:36:29.993Z,102645.42
2024-02-02T15:39:12.866Z,102652.42
2024-02-02T15:41:52.321Z,102646.23
2024-02-02T15:44:22.468Z,102642.33
2024-02-02T15:46:52.380Z,102649.08
2024-02-02T15:49:24.466Z,102651.55
2024-02-02T15:51:56.556Z,102647.46
2024-02-02T15:54:26.439Z,102640.73
2024-02-02T15:56:57.701Z,102640.71
2024-02-02T15:59:27.518Z,102645.68
2024-02-02T16:01:59.630Z,102650.64
2024-02-02T16:04:29.780Z,102656.33
2024-02-02T16:07:06.129Z,102661.85
2024-02-02T16:09:40.915Z,102664.10
2024-02-02T16:12:15.924Z,102664.60
2024-02-02T16:14:47.968Z,102667.56
2024-02-02T16:17:17.860Z,102673.77
2024-02-02T16:19:47.912Z,102667.54
2024-02-02T16:22:22.812Z,102664.52
2024-02-02T16:24:53.208Z,102658.98
2024-02-02T16:27:25.802Z,102659.98
2024-02-02T16:29:55.884Z,102659.40
2024-02-02T16:32:25.939Z,102659.20
2024-02-02T16:34:55.902Z,102649.27
2024-02-02T16:37:26.010Z,102648.87
2024-02-02T16:40:00.668Z,102644.44
2024-02-02T16:42:30.670Z,102635.25
2024-02-02T16:45:03.874Z,102638.92
2024-02-02T16:47:33.758Z,102636.96
2024-02-02T16:50:06.718Z,102637.10
2024-02-02T16:52:39.053Z,102644.08
2024-02-02T16:55:11.240Z,102647.45
2024-02-02T16:57:41.746Z,102641.64
2024-02-02T17:00:12.968Z,102642.02
2024-02-02T17:02:42.849Z,102643.27
2024-02-02T17:05:12.854Z,102648.45
2024-02-02T17:07:45.907Z,102647.12
2024-02-02T17:10:16.039Z,102653.99
2024-02-02T17:12:46.345Z,102650.73
2024-02-02T17:15:17.063Z,102646.30
2024-02-02T17:17:49.324Z,102647.04
2024-02-02T17:20:19.507Z,102649.52
2024-02-02T17:22:49.593Z,102651.96
2024-02-02T17:25:20.427Z,102661.18
2024-02-02T17:27:50.311Z,102659.02
2024-02-02T17:30:23.097Z,102664.33
2024-02-02T17:32:57.468Z,102665.00
2024-02-02T17:35:34.232Z,102655.59
2024-02-02T17:38:15.084Z,102663.41
2024-02-02T17:40:47.601Z,102662.50
2024-02-02T17:43:18.553Z,102653.77
2024-02-02T17:45:49.173Z,102661.73
2024-02-02T17:48:21.802Z,102658.66
2024-02-02T17:50:52.067Z,102659.56
2024-02-02T17:53:22.216Z,102658.16
2024-02-02T17:55:52.094Z,102654.82
2024-02-02T17:58:22.065Z,102650.39
2024-02-02T18:00:54.412Z,102653.04
2024-02-02T18:03:26.923Z,102643.96
2024-02-02T18:05:57.368Z,102645.34
2024-02-02T18:08:30.042Z,102650.86
2024-02-02T18:11:07.185Z,102649.98
2024-02-02T18:13:42.319Z,102646.11
2024-02-02T18:16:14.334Z,102646.52
2024-02-02T18:18:46.899Z,102650.06
2024-02-02T18:21:17.131Z,102650.05
2024-02-02T18:23:47.004Z,102645.76
2024-02-02T18:26:17.184Z,102648.32
2024-02-02T18:28:49.582Z,102645.60
2024-02-02T18:31:19.830Z,102645.92
2024-02-02T18:33:53.286Z,102640.60
2024-02-02T18:36:23.383Z,102643.03
2024-02-02T18:38:53.377Z,102641.62
2024-02-02T18:41:33.020Z,102646.60
2024-02-02T18:44:03.639Z,102646.10
2024-02-02T18:46:33.727Z,102639.92
2024-02-02T18:49:05.966Z,102641.54
2024-02-02T18:51:35.958Z,102641.06
2024-02-02T18:54:06.851Z,102635.92
2024-02-02T18:56:36.669Z,102635.04
2024-02-02T18:59:07.335Z,102635.14
2024-02-02T19:01:37.846Z,102641.84
2024-02-02T19:04:12.461Z,102640.73
2024-02-02T19:06:42.595Z,102638.58
2024-02-02T19:09:14.623Z,102650.26
2024-02-02T19:11:44.453Z,102662.69
2024-02-02T19:14:19.837Z,102667.09
2024-02-02T19:16:52.151Z,102669.89
2024-02-02T19:19:22.500Z,102665.40
2024-02-02T19:21:56.470Z,102666.10
2024-02-02T19:24:26.481Z,102668.39
2024-02-02T19:26:56.609Z,102666.29
2024-02-02T19:29:28.705Z,102671.10
2024-02-02T19:32:00.682Z,102676.44
2024-02-02T19:34:30.960Z,102682.27
2024-02-02T19:37:02.632Z,102681.69
2024-02-02T19:39:32.614Z,102686.23
2024-02-02T19:42:02.605Z,102687.81
2024-02-02T19:44:32.608Z,102681.56
2024-02-02T19:47:02.516Z,102683.20
2024-02-02T19:49:35.186Z,102681.20
2024-02-02T19:52:05.961Z,102679.78
2024-02-02T19:54:37.174Z,102678.73
2024-02-02T19:57:07.502Z,102682.36
2024-02-02T19:59:39.671Z,102685.30
2024-02-02T20:02:11.282Z,102689.45
2024-02-02T20:04:43.651Z,102687.80
2024-02-02T20:07:13.857Z,102689.23
2024-02-02T20:09:43.786Z,102690.79
2024-02-02T20:12:13.714Z,102692.33
2024-02-02T20:14:44.029Z,102692.80
2024-02-02T20:17:16.754Z,102692.20
2024-02-02T20:19:47.158Z,102698.23
2024-02-02T20:22:19.637Z,102708.00
2024-02-02T20:24:49.665Z,102710.34
2024-02-02T20:27:19.890Z,102711.58
2024-02-02T20:29:50.789Z,102707.29
2024-02-02T20:32:20.595Z,102712.89
2024-02-02T20:34:53.506Z,102715.69
2024-02-02T20:37:23.858Z,102714.59
2024-02-02T20:39:53.894Z,102710.91
2024-02-02T20:42:23.961Z,102714.68
2024-02-02T20:44:53.917Z,102715.37
2024-02-02T20:47:25.972Z,102715.35
2024-02-02T20:49:55.906Z,102719.56
2024-02-02T20:52:25.890Z,102721.89
2024-02-02T20:54:55.891Z,102722.90
2024-02-02T20:57:25.883Z,102719.90
2024-02-02T20:59:56.124Z,102725.05
2024-02-02T21:02:26.329Z,102725.42
2024-02-02T21:04:58.303Z,102724.19
2024-02-02T21:07:32.894Z,102726.08
2024-02-02T21:10:03.411Z,102723.00
2024-02-02T21:12:33.298Z,102720.27
2024-02-02T21:15:05.203Z,102721.70
2024-02-02T21:17:37.930Z,102717.98
2024-02-02T21:20:11.398Z,102711.40
2024-02-02T21:22:41.175Z,102712.93
2024-02-02T21:25:13.732Z,102710.95
2024-02-02T21:27:44.560Z,102709.86
2024-02-02T21:30:17.764Z,102713.02
2024-02-02T21:32:47.734Z,102717.11
2024-02-02T21:35:18.701Z,102716.20
2024-02-02T21:37:51.032Z,102717.20
2024-02-02T21:40:21.467Z,102726.04
2024-02-02T21:42:55.101Z,102718.69
2024-02-02T21:45:28.795Z,102718.11
2024-02-02T21:47:58.871Z,102718.41
2024-02-02T21:50:28.799Z,102722.50
2024-02-02T21:52:58.919Z,102720.16
2024-02-02T21:55:28.990Z,102721.73
2024-02-02T21:57:59.306Z,102721.33
2024-02-02T22:00:29.337Z,102725.21
2024-02-02T22:03:01.460Z,102730.39
2024-02-02T22:05:36.315Z,102723.67
2024-02-02T22:08:11.131Z,102720.53
2024-02-02T22:10:40.994Z,102717.21
2024-02-02T22:13:11.648Z,102723.97
2024-02-02T22:15:41.537Z,102718.80
2024-02-02T22:18:12.162Z,102716.68
2024-02-02T22:20:46.288Z,102718.21
2024-02-02T22:23:16.520Z,102717.02
2024-02-02T22:25:48.544Z,102720.11
2024-02-02T22:28:20.850Z,102719.08
2024-02-02T22:30:53.475Z,102717.47
2024-02-02T22:33:23.630Z,102710.89
2024-02-02T22:35:53.550Z,102712.11
2024-02-02T22:38:26.877Z,102718.30
2024-02-02T22:41:01.394Z,102716.52
2024-02-02T22:43:37.019Z,102709.46
2024-02-02T22:46:06.935Z,102707.38
2024-02-02T22:48:36.905Z,102703.81
2024-02-02T22:51:09.481Z,102706.13
2024-02-02T22:53:39.927Z,102705.23
2024-02-02T22:56:12.075Z,102700.98
2024-02-02T22:58:44.310Z,102697.63
2024-02-02T23:01:16.711Z,102702.14
2024-02-02T23:03:46.686Z,102705.36
2024-02-02T23:06:16.739Z,102706.95
2024-02-02T23:08:47.094Z,102702.46
2024-02-02T23:11:18.039Z,102698.52
2024-02-02T23:13:48.138Z,102696.95
2024-02-02T23:16:20.630Z,102695.89
2024-02-02T23:18:50.620Z,102695.05
2024-02-02T23:21:23.300Z,102697.06
2024-02-02T23:23:53.082Z,102693.48
2024-02-02T23:26:22.909Z,102699.34
2024-02-02T23:28:52.867Z,102700.76
2024-02-02T23:31:22.743Z,102703.94
2024-02-02T23:33:52.898Z,102699.34
2024-02-02T23:36:23.693Z,102701.64
2024-02-02T23:38:53.593Z,102696.02
2024-02-02T23:41:23.426Z,102700.77
2024-02-02T23:43:53.403Z,102698.80
2024-02-02T23:46:23.178Z,102703.23
2024-02-02T23:48:53.188Z,102698.59
2024-02-02T23:51:23.443Z,102695.60
2024-02-02T23:53:55.782Z,102694.00
2024-02-02T23:56:28.126Z,102698.60
2024-02-02T23:58:57.925Z,102694.16
